Time;durP1;ratioP1;P1;durP2;ratioP2;P2;SDS_P1;SDS_P2;PMS_P1;PMS_P2;Temp;Humidity;BMP_temperature;BMP_pressure;BME280_temperature;BME280_humidity;BME280_pressure;Samples;Min_cycle;Max_cycle;Signal;HPM_P1;HPM_P2
2023/07/08 00:02:16;;;;;;;5.10;2.83;;;21.80;99.90;;;;;;5069005;28;20141;-58
2023/07/08 00:04:42;;;;;;;5.70;2.83;;;21.80;99.90;;;;;;5068634;28;20327;-58
2023/07/08 00:07:13;;;;;;;4.10;2.58;;;21.80;99.90;;;;;;5070078;28;20103;-58
2023/07/08 00:09:38;;;;;;;3.97;2.88;;;21.80;99.90;;;;;;5059833;28;20043;-58
2023/07/08 00:12:13;;;;;;;6.40;2.88;;;21.70;99.90;;;;;;5062615;28;20029;-58
2023/07/08 00:14:38;;;;;;;3.22;2.58;;;21.80;99.90;;;;;;5066819;28;20113;-59
2023/07/08 00:17:11;;;;;;;4.80;2.65;;;21.80;99.90;;;;;;5064556;28;20028;-58
2023/07/08 00:19:36;;;;;;;5.90;2.50;;;21.90;99.90;;;;;;5069386;28;20047;-58
2023/07/08 00:22:04;;;;;;;4.15;2.95;;;21.80;99.90;;;;;;5062824;28;20396;-57
2023/07/08 00:24:30;;;;;;;5.28;2.78;;;22.00;99.90;;;;;;5065977;28;20024;-58
2023/07/08 00:26:56;;;;;;;4.70;2.88;;;21.80;99.90;;;;;;5065508;28;20370;-59
2023/07/08 00:29:21;;;;;;;5.35;2.40;;;21.80;99.90;;;;;;5065015;28;20471;-59
2023/07/08 00:31:47;;;;;;;5.63;2.80;;;21.90;99.90;;;;;;5068739;28;20404;-58
2023/07/08 00:34:12;;;;;;;7.75;2.63;;;21.60;99.90;;;;;;5065182;28;20486;-58
2023/07/08 00:36:38;;;;;;;5.07;2.60;;;21.50;99.90;;;;;;5065227;28;20478;-59
2023/07/08 00:39:13;;;;;;;7.65;2.80;;;21.50;99.90;;;;;;5061600;28;20036;-58
2023/07/08 00:41:40;;;;;;;4.43;2.85;;;21.50;99.90;;;;;;5064944;28;20043;-58
2023/07/08 00:44:11;;;;;;;5.97;2.50;;;21.60;99.90;;;;;;5072090;28;20580;-58
2023/07/08 00:47:03;;;;;;;4.35;2.92;;;21.70;99.90;;;;;;5066674;28;20080;-58
2023/07/08 00:49:45;;;;;;;6.53;2.97;;;21.60;99.90;;;;;;5064953;28;20107;-58
2023/07/08 00:52:19;;;;;;;5.60;2.72;;;21.60;99.90;;;;;;5065588;28;20028;-58
2023/07/08 00:54:44;;;;;;;;;;;21.50;99.90;;;;;;5055021;28;20094;-58
2023/07/08 00:57:11;;;;;;;4.93;2.90;;;21.60;99.90;;;;;;5065409;28;19913;-58
2023/07/08 00:59:43;;;;;;;4.00;2.67;;;21.50;99.90;;;;;;5063789;28;20415;-58
2023/07/08 01:02:12;;;;;;;5.18;3.08;;;21.50;99.90;;;;;;5065259;28;20033;-58
2023/07/08 01:04:46;;;;;;;4.03;2.63;;;21.60;99.90;;;;;;5064825;28;20499;-58
2023/07/08 01:07:12;;;;;;;6.70;3.13;;;21.70;99.90;;;;;;5064504;28;20545;-58
2023/07/08 01:09:43;;;;;;;4.72;2.97;;;21.90;99.90;;;;;;5065350;28;20043;-58
2023/07/08 01:12:14;;;;;;;5.32;2.80;;;21.80;99.90;;;;;;5063558;28;20473;-58
2023/07/08 01:14:42;;;;;;;6.88;2.92;;;21.70;99.90;;;;;;5067316;28;20072;-60
2023/07/08 01:17:13;;;;;;;5.90;3.10;;;21.50;99.90;;;;;;5070416;28;20033;-58
2023/07/08 01:19:40;;;;;;;4.28;2.67;;;21.50;99.90;;;;;;5068092;28;20059;-58
2023/07/08 01:22:07;;;;;;;3.78;2.75;;;21.40;99.90;;;;;;5065223;28;20480;-58
2023/07/08 01:24:40;;;;;;;4.55;3.08;;;21.40;99.90;;;;;;5063648;28;20553;-58
2023/07/08 01:27:09;;;;;;;5.43;2.73;;;21.60;99.90;;;;;;5060434;28;20523;-58
2023/07/08 01:29:35;;;;;;;6.72;2.97;;;21.70;99.90;;;;;;5060716;28;20342;-58
2023/07/08 01:32:02;;;;;;;5.65;3.15;;;21.60;99.90;;;;;;5069188;28;20119;-58
2023/07/08 01:34:37;;;;;;;5.60;2.88;;;21.50;99.90;;;;;;5068772;28;20029;-58
2023/07/08 01:37:04;;;;;;;6.70;2.90;;;21.40;99.90;;;;;;5071905;28;20543;-58
2023/07/08 01:39:31;;;;;;;4.88;2.95;;;21.50;99.90;;;;;;5068860;28;20036;-58
2023/07/08 01:41:57;;;;;;;3.85;2.72;;;21.50;99.90;;;;;;5065781;28;20434;-58
2023/07/08 01:44:33;;;;;;;5.72;2.90;;;21.30;99.90;;;;;;5070150;28;20234;-58
2023/07/08 01:47:15;;;;;;;4.63;2.78;;;21.40;99.90;;;;;;5064283;28;20037;-58
2023/07/08 01:49:42;;;;;;;4.30;2.92;;;21.30;99.90;;;;;;5065605;28;20047;-58
2023/07/08 01:52:10;;;;;;;6.50;3.03;;;21.30;99.90;;;;;;5068457;28;20508;-58
2023/07/08 01:54:35;;;;;;;3.58;2.75;;;21.30;99.90;;;;;;5068336;28;20021;-58
2023/07/08 01:57:02;;;;;;;5.60;3.20;;;21.20;99.90;;;;;;5068412;28;20496;-58
2023/07/08 01:59:28;;;;;;;3.08;2.75;;;21.10;99.90;;;;;;5070693;28;20024;-58
2023/07/08 02:01:54;;;;;;;4.78;2.90;;;21.10;99.90;;;;;;5067135;28;20039;-58
2023/07/08 02:04:24;;;;;;;7.35;3.10;;;21.10;99.90;;;;;;5064867;28;20028;-58
2023/07/08 02:06:58;;;;;;;5.82;3.40;;;21.10;99.90;;;;;;5067636;28;20703;-58
2023/07/08 02:09:28;;;;;;;3.92;3.05;;;21.20;99.90;;;;;;5064892;28;20051;-58
2023/07/08 02:11:53;;;;;;;6.00;3.20;;;21.20;99.90;;;;;;5068280;28;20446;-58
2023/07/08 02:14:20;;;;;;;4.93;3.03;;;21.20;99.90;;;;;;5067334;28;20093;-58
2023/07/08 02:16:45;;;;;;;5.78;3.00;;;21.10;99.90;;;;;;5072863;28;20045;-58
2023/07/08 02:19:11;;;;;;;3.90;2.95;;;21.20;99.90;;;;;;5072784;28;20073;-58
2023/07/08 02:21:38;;;;;;;4.15;2.72;;;21.00;99.90;;;;;;5072999;28;20040;-58
2023/07/08 02:24:05;;;;;;;5.60;3.00;;;21.00;99.90;;;;;;5067577;28;20044;-58
2023/07/08 02:26:32;;;;;;;5.75;2.85;;;20.90;99.90;;;;;;5067794;28;20108;-58
2023/07/08 02:28:58;;;;;;;4.47;2.72;;;20.80;99.90;;;;;;5068156;28;20033;-58
2023/07/08 02:31:26;;;;;;;6.15;3.33;;;20.90;99.90;;;;;;5067492;28;20386;-58
2023/07/08 02:33:53;;;;;;;3.28;2.80;;;21.00;99.90;;;;;;5074731;28;20036;-58
2023/07/08 02:36:19;;;;;;;7.63;3.17;;;20.80;99.90;;;;;;5069744;28;20090;-59
2023/07/08 02:38:44;;;;;;;4.15;3.05;;;20.40;99.90;;;;;;5073722;28;20055;-58
2023/07/08 02:41:11;;;;;;;4.78;3.10;;;20.60;99.90;;;;;;5071581;28;20555;-58
2023/07/08 02:43:40;;;;;;;4.20;3.10;;;20.60;99.90;;;;;;5072904;28;20040;-58
2023/07/08 02:46:05;;;;;;;4.30;3.25;;;20.70;99.90;;;;;;5070958;28;20059;-58
2023/07/08 02:48:31;;;;;;;4.32;3.03;;;20.70;99.90;;;;;;5071852;28;20624;-59
2023/07/08 02:51:01;;;;;;;3.88;2.55;;;20.70;99.90;;;;;;5074896;28;20044;-58
2023/07/08 02:53:26;;;;;;;5.13;3.10;;;20.70;99.90;;;;;;5065182;28;20440;-59
2023/07/08 02:55:52;;;;;;;4.50;2.97;;;20.80;99.90;;;;;;5069803;28;20032;-58
2023/07/08 02:58:17;;;;;;;4.88;3.17;;;20.70;99.90;;;;;;5078555;28;20036;-58
2023/07/08 03:00:43;;;;;;;6.15;3.10;;;20.60;99.90;;;;;;5067752;28;20041;-58
2023/07/08 03:03:08;;;;;;;4.57;2.97;;;20.70;99.90;;;;;;5076382;28;20063;-58
2023/07/08 03:05:34;;;;;;;4.13;3.10;;;20.70;99.90;;;;;;5069090;28;20117;-58
2023/07/08 03:08:00;;;;;;;4.82;3.03;;;20.60;99.90;;;;;;5071969;28;20032;-59
2023/07/08 03:10:26;;;;;;;8.38;3.45;;;20.50;99.90;;;;;;5070401;28;20036;-58
2023/07/08 03:12:51;;;;;;;6.72;2.90;;;20.50;99.90;;;;;;5071637;28;20046;-58
2023/07/08 03:15:17;;;;;;;4.85;3.00;;;20.60;99.90;;;;;;5076724;28;20123;-60
2023/07/08 03:17:43;;;;;;;4.40;2.78;;;20.70;99.90;;;;;;5069536;28;20044;-58
2023/07/08 03:20:10;;;;;;;6.47;2.90;;;20.60;99.90;;;;;;5075558;28;20048;-59
2023/07/08 03:22:36;;;;;;;5.00;3.13;;;20.60;99.90;;;;;;5054775;28;20492;-58
2023/07/08 03:25:02;;;;;;;6.63;3.30;;;20.70;99.90;;;;;;5069641;28;20039;-57
2023/07/08 03:27:27;;;;;;;5.15;3.30;;;20.80;99.90;;;;;;5067496;28;20036;-59
2023/07/08 03:29:53;;;;;;;5.55;3.13;;;20.80;99.90;;;;;;5066700;28;20116;-59
2023/07/08 03:32:19;;;;;;;4.40;2.70;;;20.80;99.90;;;;;;5066238;28;20060;-58
2023/07/08 03:34:44;;;;;;;7.03;3.05;;;20.70;99.90;;;;;;5066554;28;20037;-59
2023/07/08 03:37:10;;;;;;;6.32;3.00;;;20.70;99.90;;;;;;5063748;28;20028;-58
2023/07/08 03:39:35;;;;;;;5.53;2.80;;;20.90;99.90;;;;;;5071482;28;20028;-58
2023/07/08 03:42:02;;;;;;;4.68;3.05;;;20.80;99.90;;;;;;5070488;28;20040;-58
2023/07/08 03:44:28;;;;;;;4.53;3.13;;;20.60;99.90;;;;;;5065853;28;20311;-58
2023/07/08 03:46:53;;;;;;;4.85;2.75;;;20.50;99.90;;;;;;5067555;28;20469;-58
2023/07/08 03:49:22;;;;;;;4.20;3.08;;;20.40;99.90;;;;;;5068133;28;20029;-58
2023/07/08 03:51:48;;;;;;;5.20;3.33;;;20.50;99.90;;;;;;5069222;28;20025;-59
2023/07/08 03:54:15;;;;;;;7.05;3.00;;;20.40;99.90;;;;;;5065907;28;20094;-58
2023/07/08 03:56:41;;;;;;;14.32;3.42;;;20.40;99.90;;;;;;5065702;28;20024;-59
2023/07/08 03:59:07;;;;;;;5.03;3.17;;;20.40;99.90;;;;;;5065715;28;20090;-59
2023/07/08 04:01:33;;;;;;;5.78;3.53;;;20.30;99.90;;;;;;5062079;28;20044;-59
2023/07/08 04:03:59;;;;;;;11.38;3.25;;;20.40;99.90;;;;;;5068973;28;20516;-59
2023/07/08 04:06:26;;;;;;;5.78;3.17;;;20.40;99.90;;;;;;5073100;28;20032;-59
2023/07/08 04:08:52;;;;;;;3.80;2.88;;;20.40;99.90;;;;;;5067100;28;20032;-61
2023/07/08 04:11:23;;;;;;;3.45;2.75;;;20.30;99.90;;;;;;5075219;28;20507;-58
2023/07/08 04:13:49;;;;;;;6.72;2.95;;;20.50;99.90;;;;;;5068191;28;20039;-58
2023/07/08 04:16:25;;;;;;;8.32;2.97;;;20.40;99.90;;;;;;5069276;28;20048;-58
2023/07/08 04:18:53;;;;;;;5.43;2.88;;;20.30;99.90;;;;;;5068181;28;20043;-58
2023/07/08 04:21:19;;;;;;;11.90;3.05;;;20.40;99.90;;;;;;5065951;28;20123;-59
2023/07/08 04:23:44;;;;;;;5.15;3.15;;;20.60;99.90;;;;;;5066253;28;20036;-58
2023/07/08 04:26:10;;;;;;;5.32;3.15;;;20.60;99.90;;;;;;5065243;28;20413;-58
2023/07/08 04:28:36;;;;;;;7.82;3.42;;;20.60;99.90;;;;;;5066027;28;20036;-58
2023/07/08 04:31:01;;;;;;;4.55;3.20;;;20.60;99.90;;;;;;5071987;28;20040;-59
2023/07/08 04:33:27;;;;;;;5.25;3.20;;;20.50;99.90;;;;;;5064845;28;20036;-59
2023/07/08 04:35:54;;;;;;;6.95;3.13;;;20.50;99.90;;;;;;5062122;28;20045;-58
2023/07/08 04:38:22;;;;;;;6.72;3.30;;;20.50;99.90;;;;;;5065592;28;20055;-59
2023/07/08 04:40:52;;;;;;;5.38;3.35;;;20.40;99.90;;;;;;5065562;28;20032;-59
2023/07/08 04:43:18;;;;;;;7.28;3.30;;;20.20;99.90;;;;;;5061360;28;20028;-58
2023/07/08 04:45:47;;;;;;;4.75;3.15;;;20.20;99.90;;;;;;5072423;28;20496;-58
2023/07/08 04:48:16;;;;;;;7.32;2.78;;;20.20;99.90;;;;;;5060085;28;20129;-59
2023/07/08 04:50:44;;;;;;;6.05;2.75;;;20.30;99.90;;;;;;5066348;28;20036;-63
2023/07/08 04:53:10;;;;;;;5.15;3.20;;;20.40;99.90;;;;;;5061203;28;20047;-60
2023/07/08 04:55:41;;;;;;;5.78;3.60;;;20.40;99.90;;;;;;5068319;28;20131;-61
2023/07/08 04:58:07;;;;;;;6.43;3.15;;;20.30;99.90;;;;;;5071870;28;20127;-60
2023/07/08 05:00:32;;;;;;;4.10;3.00;;;20.40;99.90;;;;;;5068533;28;20433;-60
2023/07/08 05:02:58;;;;;;;5.65;3.03;;;20.50;99.90;;;;;;5066054;28;20633;-62
2023/07/08 05:05:24;;;;;;;8.50;3.58;;;20.50;99.90;;;;;;5067265;28;20056;-60
2023/07/08 05:07:49;;;;;;;6.05;3.30;;;20.50;99.90;;;;;;5074853;28;20044;-61
2023/07/08 05:10:15;;;;;;;4.70;3.10;;;20.60;99.90;;;;;;5067485;28;20033;-60
2023/07/08 05:12:42;;;;;;;5.90;3.08;;;20.50;99.90;;;;;;5072310;27;20025;-61
2023/07/08 05:15:09;;;;;;;6.30;3.35;;;20.40;99.90;;;;;;5072242;28;20209;-60
2023/07/08 05:17:35;;;;;;;5.47;3.13;;;20.40;99.90;;;;;;5075974;28;20047;-61
2023/07/08 05:20:00;;;;;;;4.82;3.40;;;20.60;99.90;;;;;;5074689;28;20033;-61
2023/07/08 05:22:27;;;;;;;5.55;3.10;;;20.60;99.90;;;;;;5073777;28;20025;-61
2023/07/08 05:24:56;;;;;;;7.88;3.40;;;20.90;99.90;;;;;;5071970;28;20056;-61
2023/07/08 05:27:23;;;;;;;4.68;3.10;;;21.00;99.90;;;;;;5068722;27;20038;-60
2023/07/08 05:29:48;;;;;;;4.82;3.03;;;21.00;99.90;;;;;;5071851;28;20028;-61
2023/07/08 05:32:14;;;;;;;5.28;3.15;;;21.20;99.90;;;;;;5071899;27;20052;-60
2023/07/08 05:34:40;;;;;;;7.13;3.15;;;21.20;99.90;;;;;;5069991;28;20036;-61
2023/07/08 05:37:06;;;;;;;7.82;3.08;;;21.20;99.90;;;;;;5076955;28;20528;-62
2023/07/08 05:39:32;;;;;;;7.70;3.45;;;21.20;99.90;;;;;;5070857;27;20024;-61
2023/07/08 05:41:57;;;;;;;7.43;3.65;;;21.30;99.90;;;;;;5076202;28;20036;-60
2023/07/08 05:44:23;;;;;;;5.00;3.28;;;21.30;99.90;;;;;;5066309;28;20086;-60
2023/07/08 05:46:49;;;;;;;5.45;3.28;;;21.50;99.90;;;;;;5070812;28;20123;-61
2023/07/08 05:49:15;;;;;;;5.35;3.53;;;21.70;99.90;;;;;;5067071;28;20401;-60
2023/07/08 05:51:41;;;;;;;6.47;3.42;;;21.60;99.90;;;;;;5071814;27;20116;-62
2023/07/08 05:54:06;;;;;;;9.15;3.75;;;21.60;99.90;;;;;;5077682;28;20039;-60
2023/07/08 05:56:32;;;;;;;9.35;4.05;;;21.70;99.90;;;;;;5071042;28;20108;-61
2023/07/08 05:58:58;;;;;;;5.93;3.38;;;21.90;99.90;;;;;;5071483;28;20456;-62
2023/07/08 06:01:23;;;;;;;8.05;3.90;;;22.00;99.90;;;;;;5066514;27;20037;-62
2023/07/08 06:03:49;;;;;;;7.63;4.40;;;21.90;99.90;;;;;;5071798;27;20492;-62
2023/07/08 06:06:15;;;;;;;9.05;4.53;;;22.10;99.90;;;;;;5070871;27;20520;-60
2023/07/08 06:08:41;;;;;;;10.02;4.57;;;22.20;99.90;;;;;;5073523;28;20101;-61
2023/07/08 06:11:07;;;;;;;12.77;4.72;;;22.40;99.90;;;;;;5071328;27;20060;-61
2023/07/08 06:13:32;;;;;;;8.52;4.93;;;22.40;99.90;;;;;;5073332;28;20048;-60
2023/07/08 06:15:58;;;;;;;6.80;4.28;;;22.50;99.90;;;;;;5073928;28;20078;-61
2023/07/08 06:18:24;;;;;;;7.20;4.30;;;22.70;99.90;;;;;;5068563;28;20052;-60
2023/07/08 06:20:54;;;;;;;7.57;4.03;;;22.80;99.90;;;;;;5071805;28;20046;-60
2023/07/08 06:23:19;;;;;;;7.15;4.20;;;23.00;99.90;;;;;;5069535;28;20055;-61
2023/07/08 06:25:45;;;;;;;5.50;4.28;;;23.20;99.90;;;;;;5060916;28;20536;-62
2023/07/08 06:28:10;;;;;;;8.13;4.40;;;23.40;99.90;;;;;;5067201;28;20025;-62
2023/07/08 06:30:37;;;;;;;9.20;4.22;;;23.50;99.90;;;;;;5070453;28;20037;-61
2023/07/08 06:33:03;;;;;;;5.28;3.70;;;23.60;99.90;;;;;;5067683;28;20028;-60
2023/07/08 06:35:29;;;;;;;5.68;3.90;;;23.70;99.90;;;;;;5058296;28;20101;-61
2023/07/08 06:37:54;;;;;;;5.38;4.10;;;23.80;99.90;;;;;;5065212;28;20041;-61
2023/07/08 06:40:20;;;;;;;5.55;4.32;;;23.90;99.90;;;;;;5067125;28;20045;-62
2023/07/08 06:42:46;;;;;;;6.55;4.00;;;23.90;99.90;;;;;;5059450;28;20705;-62
2023/07/08 06:45:12;;;;;;;5.53;4.20;;;23.90;99.90;;;;;;5067099;28;20036;-61
2023/07/08 06:47:37;;;;;;;6.68;4.18;;;23.90;99.90;;;;;;5062402;28;20036;-61
2023/07/08 06:50:04;;;;;;;7.25;4.60;;;24.00;99.90;;;;;;5067301;28;20037;-60
2023/07/08 06:52:35;;;;;;;7.95;4.20;;;24.20;99.90;;;;;;5059504;28;20083;-62
2023/07/08 06:55:01;;;;;;;7.15;4.07;;;24.30;99.90;;;;;;5059697;28;20070;-61
2023/07/08 06:57:27;;;;;;;10.60;4.70;;;24.40;99.90;;;;;;5063607;28;20127;-61
2023/07/08 06:59:53;;;;;;;6.32;4.30;;;24.40;99.90;;;;;;5063362;28;20116;-62
2023/07/08 07:02:19;;;;;;;8.18;4.43;;;24.50;99.90;;;;;;5059105;28;20396;-61
2023/07/08 07:04:45;;;;;;;8.98;4.47;;;24.50;99.90;;;;;;5059400;28;20075;-61
2023/07/08 07:07:10;;;;;;;9.32;4.60;;;24.60;99.90;;;;;;5061761;28;20111;-61
2023/07/08 07:09:36;;;;;;;7.55;4.47;;;24.60;99.90;;;;;;5054324;28;20462;-62
2023/07/08 07:12:02;;;;;;;9.75;4.78;;;24.70;99.90;;;;;;5060156;28;20036;-63
2023/07/08 07:14:27;;;;;;;9.00;4.28;;;24.80;99.90;;;;;;5060611;28;20032;-61
2023/07/08 07:16:53;;;;;;;11.07;4.60;;;24.80;99.90;;;;;;5063722;28;20036;-62
2023/07/08 07:19:20;;;;;;;7.60;4.40;;;24.90;99.90;;;;;;5059090;28;20448;-61
2023/07/08 07:21:45;;;;;;;8.13;4.95;;;24.90;99.90;;;;;;5065200;28;20044;-61
2023/07/08 07:24:11;;;;;;;7.70;4.35;;;25.10;99.90;;;;;;5060572;28;20025;-61
2023/07/08 07:26:37;;;;;;;8.15;4.60;;;25.20;99.90;;;;;;5055763;28;20032;-62
2023/07/08 07:29:03;;;;;;;6.80;4.40;;;25.20;99.90;;;;;;5053871;28;20401;-61
2023/07/08 07:31:29;;;;;;;12.35;9.07;;;25.20;99.90;;;;;;5058956;28;20036;-62
2023/07/08 07:33:55;;;;;;;9.40;5.88;;;25.30;99.90;;;;;;5063295;28;20052;-61
2023/07/08 07:36:20;;;;;;;7.63;5.63;;;25.30;99.90;;;;;;5064155;28;20049;-61
2023/07/08 07:38:46;;;;;;;9.35;5.28;;;25.50;99.90;;;;;;5060905;28;20071;-62
2023/07/08 07:41:12;;;;;;;15.32;11.35;;;25.60;99.90;;;;;;5060015;28;20393;-61
2023/07/08 07:43:38;;;;;;;7.85;5.53;;;25.80;99.90;;;;;;5062393;28;20094;-63
2023/07/08 07:46:05;;;;;;;10.65;5.50;;;26.00;99.90;;;;;;5069929;28;20681;-62
2023/07/08 07:48:31;;;;;;;8.70;5.80;;;25.90;99.90;;;;;;5060702;28;20605;-61
2023/07/08 07:50:57;;;;;;;8.93;5.50;;;26.00;99.90;;;;;;5069553;28;20040;-61
2023/07/08 07:53:23;;;;;;;8.88;5.80;;;26.00;99.20;;;;;;5066013;28;20501;-61
2023/07/08 07:55:56;;;;;;;11.32;5.70;;;26.00;99.90;;;;;;5066099;28;20038;-61
2023/07/08 07:58:22;;;;;;;7.57;5.15;;;26.20;99.90;;;;;;5064850;28;20203;-61
2023/07/08 08:00:47;;;;;;;6.93;5.43;;;26.30;99.20;;;;;;5058643;28;20040;-62
2023/07/08 08:03:13;;;;;;;7.88;5.75;;;26.30;99.70;;;;;;5056718;28;20511;-61
2023/07/08 08:05:38;;;;;;;8.55;5.35;;;26.40;99.70;;;;;;5064727;28;20066;-63
2023/07/08 08:08:04;;;;;;;7.85;5.57;;;26.30;96.40;;;;;;5063475;28;20079;-63
2023/07/08 08:10:32;;;;;;;9.10;5.88;;;26.30;96.10;;;;;;5063770;28;20032;-61
2023/07/08 08:12:58;;;;;;;8.80;6.03;;;26.40;96.30;;;;;;5065055;28;20032;-62
2023/07/08 08:15:23;;;;;;;9.35;5.60;;;26.50;93.00;;;;;;5065591;28;20436;-63
2023/07/08 08:17:51;;;;;;;8.57;5.82;;;26.60;95.40;;;;;;5063912;28;20429;-62
2023/07/08 08:20:18;;;;;;;8.00;5.40;;;26.60;93.00;;;;;;5064184;28;20029;-63
2023/07/08 08:22:44;;;;;;;8.55;6.28;;;26.80;94.00;;;;;;5064765;28;20045;-62
2023/07/08 08:25:10;;;;;;;9.02;5.80;;;26.90;93.30;;;;;;5061157;28;20559;-61
2023/07/08 08:27:39;;;;;;;7.72;5.82;;;27.00;94.80;;;;;;5064578;28;20526;-63
2023/07/08 08:30:06;;;;;;;8.13;5.53;;;27.00;95.30;;;;;;5065676;28;20037;-63
2023/07/08 08:32:31;;;;;;;9.57;6.05;;;27.10;92.90;;;;;;5065215;28;20045;-64
2023/07/08 08:34:57;;;;;;;7.47;6.00;;;27.10;94.10;;;;;;5060440;28;20051;-63
2023/07/08 08:37:23;;;;;;;7.45;5.72;;;27.20;90.40;;;;;;5059426;28;20110;-63
2023/07/08 08:39:49;;;;;;;10.13;5.72;;;27.30;90.20;;;;;;5058616;28;20021;-63
2023/07/08 08:42:25;;;;;;;9.48;5.70;;;27.40;92.00;;;;;;5059401;28;20043;-63
2023/07/08 08:44:51;;;;;;;9.40;5.85;;;27.40;91.70;;;;;;5058463;28;20503;-63
2023/07/08 08:47:42;;;;;;;11.65;5.68;;;27.50;92.20;;;;;;5059665;28;20044;-62
2023/07/08 08:50:24;;;;;;;9.70;5.63;;;27.50;90.80;;;;;;5057554;28;20021;-60
2023/07/08 08:52:51;;;;;;;8.60;6.15;;;27.50;90.30;;;;;;5063153;28;20137;-61
2023/07/08 08:55:17;;;;;;;9.05;5.90;;;27.60;87.50;;;;;;5062878;28;20492;-61
2023/07/08 08:57:55;;;;;;;9.63;5.70;;;27.60;87.30;;;;;;5063680;28;20128;-61
2023/07/08 09:00:42;;;;;;;10.07;6.00;;;27.60;85.50;;;;;;5064420;28;20044;-62
2023/07/08 09:03:20;;;;;;;9.15;6.13;;;27.70;88.00;;;;;;5064982;28;20040;-61
2023/07/08 09:05:46;;;;;;;9.48;6.30;;;27.90;84.20;;;;;;5063359;28;20059;-62
2023/07/08 09:08:26;;;;;;;11.77;6.20;;;27.80;82.20;;;;;;5060365;28;20112;-61
2023/07/08 09:11:15;;;;;;;7.82;5.82;;;27.90;82.70;;;;;;5060110;28;20036;-61
2023/07/08 09:13:40;;;;;;;12.75;5.85;;;28.00;82.50;;;;;;5061606;28;20040;-64
2023/07/08 09:16:16;;;;;;;10.35;6.70;;;28.00;80.80;;;;;;5065303;28;20426;-61
2023/07/08 09:19:01;;;;;;;9.35;6.28;;;28.00;81.10;;;;;;5071702;28;20033;-61
2023/07/08 09:21:58;;;;;;;9.75;5.93;;;28.10;81.80;;;;;;5064165;28;20531;-61
2023/07/08 09:24:51;;;;;;;11.65;6.10;;;28.10;83.20;;;;;;5054815;28;20065;-60
2023/07/08 09:27:16;;;;;;;11.27;5.88;;;28.20;80.30;;;;;;5061693;28;20044;-60
2023/07/08 09:29:42;;;;;;;9.95;6.68;;;28.30;83.00;;;;;;5063366;28;20082;-60
2023/07/08 09:32:27;;;;;;;9.38;5.90;;;28.30;82.40;;;;;;5063896;28;20036;-62
2023/07/08 09:35:02;;;;;;;10.02;7.93;;;28.30;85.20;;;;;;5064475;28;20398;-61
2023/07/08 09:37:29;;;;;;;9.85;5.43;;;28.30;83.20;;;;;;5064595;28;20075;-60
2023/07/08 09:39:57;;;;;;;9.25;5.60;;;28.30;81.50;;;;;;5063854;28;20473;-61
2023/07/08 09:42:31;;;;;;;8.55;5.75;;;28.30;77.90;;;;;;5060717;28;20561;-60
2023/07/08 09:45:12;;;;;;;8.90;5.70;;;28.50;77.90;;;;;;5065723;28;20032;-61
2023/07/08 09:47:40;;;;;;;8.35;5.43;;;28.50;78.40;;;;;;5062594;28;20508;-60
2023/07/08 09:50:27;;;;;;;10.95;5.88;;;28.60;87.50;;;;;;5067424;28;20044;-60
2023/07/08 09:52:57;;;;;;;9.45;6.65;;;28.80;81.90;;;;;;5064786;28;20646;-60
2023/07/08 09:55:24;;;;;;;8.70;5.97;;;28.80;79.90;;;;;;5064973;28;20056;-60
2023/07/08 09:57:53;;;;;;;8.45;5.50;;;28.80;78.80;;;;;;5059236;28;20056;-61
2023/07/08 10:00:26;;;;;;;10.15;5.70;;;29.00;81.20;;;;;;5062726;28;20173;-61
2023/07/08 10:02:56;;;;;;;7.53;4.70;;;29.00;76.20;;;;;;5056559;28;20052;-62
2023/07/08 10:05:37;;;;;;;9.27;5.20;;;29.10;77.20;;;;;;5053703;28;20093;-61
2023/07/08 10:08:14;;;;;;;7.50;5.35;;;29.00;77.50;;;;;;5064620;28;20419;-61
2023/07/08 10:10:40;;;;;;;6.50;5.20;;;29.10;76.60;;;;;;5064581;28;20111;-61
2023/07/08 10:13:26;;;;;;;8.30;5.15;;;29.20;76.80;;;;;;5064224;28;20062;-61
2023/07/08 10:16:12;;;;;;;5.95;4.85;;;29.20;79.00;;;;;;5072161;28;20104;-62
2023/07/08 10:18:37;;;;;;;8.60;4.95;;;29.30;77.10;;;;;;5069163;28;20032;-63
2023/07/08 10:21:14;;;;;;;9.10;5.07;;;29.30;74.00;;;;;;5061959;28;21169;-60
2023/07/08 10:24:17;;;;;;;5.85;4.70;;;29.20;72.30;;;;;;5072393;28;20040;-62
2023/07/08 10:26:46;;;;;;;8.30;4.88;;;29.30;72.00;;;;;;5062495;28;20480;-62
2023/07/08 10:29:32;;;;;;;9.35;4.85;;;29.30;76.50;;;;;;5072602;28;20027;-61
2023/07/08 10:32:20;;;;;;;6.30;4.68;;;29.50;72.70;;;;;;5067484;28;20039;-62
2023/07/08 10:35:01;;;;;;;7.25;4.90;;;29.60;73.70;;;;;;5055687;28;20036;-61
2023/07/08 10:37:51;;;;;;;6.68;4.50;;;29.60;74.50;;;;;;5061123;28;20499;-61
2023/07/08 10:40:49;;;;;;;8.10;4.80;;;29.70;72.90;;;;;;5063620;28;20033;-61
2023/07/08 10:43:28;;;;;;;8.85;4.85;;;29.60;74.60;;;;;;5069482;28;20036;-62
2023/07/08 10:46:10;;;;;;;11.23;4.80;;;29.70;74.50;;;;;;5065697;28;20068;-61
2023/07/08 10:48:42;;;;;;;24.88;22.20;;;29.70;75.30;;;;;;5064954;28;20040;-61
2023/07/08 10:51:33;;;;;;;7.45;5.18;;;29.70;73.50;;;;;;5068302;28;20119;-60
2023/07/08 10:54:17;;;;;;;15.45;11.13;;;29.80;70.10;;;;;;5069139;28;20071;-61
2023/07/08 10:57:07;;;;;;;10.82;9.40;;;29.80;72.90;;;;;;5063807;28;20032;-61
2023/07/08 10:59:51;;;;;;;10.60;5.95;;;29.90;69.90;;;;;;5066533;28;20032;-61
2023/07/08 11:02:43;;;;;;;;;;;30.00;72.80;;;;;;5070999;28;20044;-60
2023/07/08 11:05:31;;;;;;;13.32;11.30;;;30.10;73.40;;;;;;5061903;28;19912;-60
2023/07/08 11:08:23;;;;;;;10.48;6.70;;;30.00;69.90;;;;;;5066861;28;20035;-60
2023/07/08 11:10:53;;;;;;;9.57;5.83;;;30.10;69.90;;;;;;5066079;28;20041;-61
2023/07/08 11:13:22;;;;;;;10.10;6.00;;;30.20;69.60;;;;;;5066325;28;20064;-62
2023/07/08 11:15:56;;;;;;;8.95;5.32;;;30.10;68.40;;;;;;5065555;28;20669;-62
2023/07/08 11:18:28;;;;;;;8.48;5.07;;;30.20;70.60;;;;;;5063809;28;20037;-62
2023/07/08 11:21:03;;;;;;;7.90;5.50;;;30.20;68.40;;;;;;5060373;28;20404;-61
2023/07/08 11:23:36;;;;;;;10.25;5.60;;;30.30;71.50;;;;;;5057625;28;20523;-62
2023/07/08 11:26:26;;;;;;;9.40;5.45;;;30.20;69.90;;;;;;5066696;28;20115;-61
2023/07/08 11:28:56;;;;;;;7.78;4.63;;;30.20;72.00;;;;;;5072708;28;20036;-62
2023/07/08 11:31:22;;;;;;;12.35;4.90;;;30.30;69.80;;;;;;5070119;28;20041;-61
2023/07/08 11:33:48;;;;;;;8.32;4.65;;;30.40;68.80;;;;;;5067273;28;20097;-64
2023/07/08 11:36:17;;;;;;;7.57;4.70;;;30.50;69.60;;;;;;5066551;28;20330;-64
2023/07/08 11:38:52;;;;;;;6.75;4.35;;;30.60;70.60;;;;;;5068619;28;20040;-64
2023/07/08 11:41:21;;;;;;;7.45;4.57;;;30.70;69.40;;;;;;5058889;28;20078;-62
2023/07/08 11:43:52;;;;;;;7.43;4.85;;;30.60;68.00;;;;;;5066979;28;20037;-63
2023/07/08 11:46:25;;;;;;;9.80;5.03;;;30.60;66.60;;;;;;5063701;28;20347;-62
2023/07/08 11:48:56;;;;;;;8.60;5.82;;;30.60;64.40;;;;;;5057115;28;20041;-63
2023/07/08 11:51:29;;;;;;;10.55;5.80;;;30.70;63.90;;;;;;5061793;28;20089;-62
2023/07/08 11:54:01;;;;;;;7.88;5.50;;;30.60;63.70;;;;;;5061509;28;20029;-63
2023/07/08 11:56:27;;;;;;;6.03;4.50;;;30.80;64.90;;;;;;5065246;28;20463;-63
2023/07/08 11:59:10;;;;;;;6.75;5.40;;;30.70;62.80;;;;;;5063573;28;20132;-63
2023/07/08 12:01:47;;;;;;;8.32;5.15;;;30.70;62.50;;;;;;5063412;28;20086;-63
2023/07/08 12:04:12;;;;;;;7.75;4.55;;;30.70;64.10;;;;;;5063986;28;20427;-62
2023/07/08 12:06:38;;;;;;;9.23;4.57;;;30.70;65.20;;;;;;5072113;28;20035;-65
2023/07/08 12:09:30;;;;;;;9.82;5.07;;;30.80;68.10;;;;;;5064741;28;20032;-62
2023/07/08 12:12:05;;;;;;;6.82;4.60;;;30.80;64.60;;;;;;5068333;28;20102;-63
2023/07/08 12:14:32;;;;;;;8.63;4.53;;;30.80;65.10;;;;;;5061174;28;20041;-62
2023/07/08 12:16:58;;;;;;;8.13;4.50;;;30.90;64.60;;;;;;5073337;28;20086;-64
2023/07/08 12:19:28;;;;;;;8.50;4.28;;;30.90;59.90;;;;;;5067002;28;20480;-64
2023/07/08 12:21:54;;;;;;;6.93;4.50;;;30.90;61.60;;;;;;5076283;28;20029;-63
2023/07/08 12:24:25;;;;;;;6.38;4.20;;;30.80;65.10;;;;;;5066242;28;20492;-64
2023/07/08 12:26:50;;;;;;;5.88;4.50;;;30.60;63.00;;;;;;5073180;28;20368;-63
2023/07/08 12:29:16;;;;;;;9.80;4.60;;;30.70;63.70;;;;;;5066173;28;20040;-62
2023/07/08 12:31:42;;;;;;;6.22;4.20;;;30.60;61.70;;;;;;5065545;28;20112;-63
2023/07/08 12:34:16;;;;;;;5.80;3.97;;;30.80;62.30;;;;;;5065916;28;20052;-62
2023/07/08 12:36:43;;;;;;;6.53;4.30;;;30.80;60.30;;;;;;5065903;28;20460;-64
2023/07/08 12:39:14;;;;;;;8.43;4.45;;;30.60;61.10;;;;;;5067679;28;20412;-62
2023/07/08 12:41:42;;;;;;;7.38;3.90;;;30.70;65.80;;;;;;5064750;28;20036;-62
2023/07/08 12:44:19;;;;;;;8.13;4.30;;;30.80;61.50;;;;;;5060761;28;20090;-62
2023/07/08 12:46:47;;;;;;;7.55;4.40;;;30.80;62.60;;;;;;5064121;28;20388;-63
2023/07/08 12:49:15;;;;;;;9.20;4.68;;;30.80;61.80;;;;;;5064990;28;20061;-63
2023/07/08 12:51:43;;;;;;;9.50;4.57;;;30.80;58.00;;;;;;5065961;28;20032;-63
2023/07/08 12:54:09;;;;;;;8.45;4.15;;;30.80;60.30;;;;;;5069559;28;20043;-62
2023/07/08 12:56:36;;;;;;;8.68;3.95;;;30.80;62.00;;;;;;5064361;28;20035;-63
2023/07/08 12:59:01;;;;;;;7.38;3.92;;;30.90;65.00;;;;;;5063966;28;20036;-61